sensor_id;sensor_type;location;lat;lon;timestamp;pressure;altitude;pressure_sealevel;temperature;humidity
50702;BME280;36670;50.094;8.496;2023-04-25T00:00:14;99676.53;;;11.80;66.96
50702;BME280;36670;50.094;8.496;2023-04-25T00:02:39;99687.06;;;11.78;65.91
50702;BME280;36670;50.094;8.496;2023-04-25T00:05:05;99681.53;;;12.04;65.84
50702;BME280;36670;50.094;8.496;2023-04-25T00:07:31;99671.59;;;12.13;65.71
50702;BME280;36670;50.094;8.496;2023-04-25T00:09:57;99673.53;;;12.12;65.15
50702;BME280;36670;50.094;8.496;2023-04-25T00:12:22;99689.03;;;11.98;65.31
50702;BME280;36670;50.094;8.496;2023-04-25T00:14:48;99682.66;;;11.98;65.04
50702;BME280;36670;50.094;8.496;2023-04-25T00:17:15;99685.16;;;11.99;65.07
50702;BME280;36670;50.094;8.496;2023-04-25T00:19:42;99698.66;;;11.54;66.87
50702;BME280;36670;50.094;8.496;2023-04-25T00:22:07;99695.88;;;11.54;66.83
50702;BME280;36670;50.094;8.496;2023-04-25T00:24:32;99695.84;;;11.34;67.22
50702;BME280;36670;50.094;8.496;2023-04-25T00:26:58;99697.78;;;11.38;67.21
50702;BME280;36670;50.094;8.496;2023-04-25T00:29:23;99696.16;;;11.63;67.07
50702;BME280;36670;50.094;8.496;2023-04-25T00:31:48;99692.59;;;11.73;66.48
50702;BME280;36670;50.094;8.496;2023-04-25T00:34:14;99681.53;;;11.93;66.56
50702;BME280;36670;50.094;8.496;2023-04-25T00:36:39;99688.44;;;11.75;65.85
50702;BME280;36670;50.094;8.496;2023-04-25T00:39:05;99693.09;;;11.39;66.68
50702;BME280;36670;50.094;8.496;2023-04-25T00:41:32;99689.78;;;11.42;66.82
50702;BME280;36670;50.094;8.496;2023-04-25T00:43:59;99696.41;;;11.46;65.81
50702;BME280;36670;50.094;8.496;2023-04-25T00:46:25;99686.50;;;11.55;65.84
50702;BME280;36670;50.094;8.496;2023-04-25T00:48:51;99693.63;;;11.31;65.30
50702;BME280;36670;50.094;8.496;2023-04-25T00:51:20;99684.78;;;11.23;65.37
50702;BME280;36670;50.094;8.496;2023-04-25T00:53:47;99684.97;;;11.01;66.04
50702;BME280;36670;50.094;8.496;2023-04-25T00:56:13;99686.09;;;11.10;65.44
50702;BME280;36670;50.094;8.496;2023-04-25T00:58:40;99681.16;;;11.23;65.69
50702;BME280;36670;50.094;8.496;2023-04-25T01:01:09;99678.41;;;11.18;65.93
50702;BME280;36670;50.094;8.496;2023-04-25T01:03:37;99672.63;;;11.35;65.39
50702;BME280;36670;50.094;8.496;2023-04-25T01:06:07;99661.31;;;11.62;65.82
50702;BME280;36670;50.094;8.496;2023-04-25T01:08:34;99659.69;;;11.76;65.10
50702;BME280;36670;50.094;8.496;2023-04-25T01:10:59;99660.78;;;11.65;65.93
50702;BME280;36670;50.094;8.496;2023-04-25T01:13:24;99664.09;;;11.83;65.02
50702;BME280;36670;50.094;8.496;2023-04-25T01:15:50;99667.97;;;11.87;64.71
50702;BME280;36670;50.094;8.496;2023-04-25T01:18:15;99672.97;;;11.95;64.87
50702;BME280;36670;50.094;8.496;2023-04-25T01:20:41;99669.34;;;11.89;63.99
50702;BME280;36670;50.094;8.496;2023-04-25T01:23:07;99671.59;;;11.87;64.77
50702;BME280;36670;50.094;8.496;2023-04-25T01:25:33;99676.53;;;11.80;63.58
50702;BME280;36670;50.094;8.496;2023-04-25T01:27:59;99671.31;;;11.89;64.19
50702;BME280;36670;50.094;8.496;2023-04-25T01:30:28;99672.13;;;11.69;64.63
50702;BME280;36670;50.094;8.496;2023-04-25T01:32:55;99667.69;;;11.63;64.07
50702;BME280;36670;50.094;8.496;2023-04-25T01:35:22;99668.50;;;11.48;64.97
50702;BME280;36670;50.094;8.496;2023-04-25T01:37:49;99664.94;;;11.73;63.74
50702;BME280;36670;50.094;8.496;2023-04-25T01:40:14;99671.56;;;11.82;63.41
50702;BME280;36670;50.094;8.496;2023-04-25T01:42:42;99673.78;;;11.59;63.92
50702;BME280;36670;50.094;8.496;2023-04-25T01:45:08;99673.78;;;11.54;64.40
50702;BME280;36670;50.094;8.496;2023-04-25T01:47:34;99673.50;;;11.46;64.51
50702;BME280;36670;50.094;8.496;2023-04-25T01:50:01;99675.41;;;11.60;64.77
50702;BME280;36670;50.094;8.496;2023-04-25T01:52:26;99677.09;;;11.67;64.35
50702;BME280;36670;50.094;8.496;2023-04-25T01:54:52;99676.00;;;11.83;63.84
50702;BME280;36670;50.094;8.496;2023-04-25T01:57:18;99687.63;;;11.85;64.29
50702;BME280;36670;50.094;8.496;2023-04-25T01:59:43;99680.16;;;11.81;64.30
50702;BME280;36670;50.094;8.496;2023-04-25T02:02:08;99675.72;;;11.69;64.70
50702;BME280;36670;50.094;8.496;2023-04-25T02:04:34;99676.28;;;11.71;64.76
50702;BME280;36670;50.094;8.496;2023-04-25T02:06:59;99674.91;;;11.64;64.44
50702;BME280;36670;50.094;8.496;2023-04-25T02:09:25;99679.59;;;11.68;65.49
50702;BME280;36670;50.094;8.496;2023-04-25T02:11:50;99679.06;;;11.82;65.24
50702;BME280;36670;50.094;8.496;2023-04-25T02:14:15;99672.91;;;11.43;65.38
50702;BME280;36670;50.094;8.496;2023-04-25T02:16:41;99673.47;;;11.40;65.56
50702;BME280;36670;50.094;8.496;2023-04-25T02:19:08;99671.81;;;11.55;65.52
50702;BME280;36670;50.094;8.496;2023-04-25T02:21:34;99671.00;;;11.70;64.91
50702;BME280;36670;50.094;8.496;2023-04-25T02:24:01;99668.81;;;11.72;65.05
50702;BME280;36670;50.094;8.496;2023-04-25T02:26:26;99671.31;;;11.73;65.02
50702;BME280;36670;50.094;8.496;2023-04-25T02:28:51;99667.16;;;11.55;65.65
50702;BME280;36670;50.094;8.496;2023-04-25T02:31:17;99675.69;;;11.43;65.94
50702;BME280;36670;50.094;8.496;2023-04-25T02:33:43;99663.78;;;11.48;65.13
50702;BME280;36670;50.094;8.496;2023-04-25T02:36:08;99673.50;;;11.46;65.68
50702;BME280;36670;50.094;8.496;2023-04-25T02:38:33;99674.31;;;11.51;65.48
50702;BME280;36670;50.094;8.496;2023-04-25T02:40:59;99676.56;;;11.59;64.99
50702;BME280;36670;50.094;8.496;2023-04-25T02:43:24;99673.19;;;11.42;65.46
50702;BME280;36670;50.094;8.496;2023-04-25T02:45:50;99676.56;;;11.59;64.77
50702;BME280;36670;50.094;8.496;2023-04-25T02:48:15;99681.78;;;11.66;64.03
50702;BME280;36670;50.094;8.496;2023-04-25T02:50:41;99673.72;;;11.34;64.79
50702;BME280;36670;50.094;8.496;2023-04-25T02:53:06;99673.72;;;11.34;64.21
50702;BME280;36670;50.094;8.496;2023-04-25T02:55:31;99670.13;;;11.28;64.88
50702;BME280;36670;50.094;8.496;2023-04-25T02:57:57;99654.69;;;11.37;64.44
50702;BME280;36670;50.094;8.496;2023-04-25T03:00:22;99658.59;;;10.73;64.86
50702;BME280;36670;50.094;8.496;2023-04-25T03:02:48;99659.69;;;10.67;64.68
50702;BME280;36670;50.094;8.496;2023-04-25T03:05:13;99666.03;;;10.67;65.16
50702;BME280;36670;50.094;8.496;2023-04-25T03:07:38;99661.41;;;10.78;64.64
50702;BME280;36670;50.094;8.496;2023-04-25T03:10:06;99665.78;;;10.69;64.13
50702;BME280;36670;50.094;8.496;2023-04-25T03:12:31;99677.25;;;10.45;64.78
50702;BME280;36670;50.094;8.496;2023-04-25T03:14:57;99671.25;;;10.58;64.76
50702;BME280;36670;50.094;8.496;2023-04-25T03:17:22;99675.22;;;10.78;64.69
50702;BME280;36670;50.094;8.496;2023-04-25T03:19:47;99679.63;;;10.79;64.33
50702;BME280;36670;50.094;8.496;2023-04-25T03:22:13;99677.47;;;10.97;64.20
50702;BME280;36670;50.094;8.496;2023-04-25T03:24:38;99676.47;;;10.50;64.17
50702;BME280;36670;50.094;8.496;2023-04-25T03:27:04;99675.44;;;10.66;64.55
50702;BME280;36670;50.094;8.496;2023-04-25T03:29:29;99678.50;;;10.75;63.95
50702;BME280;36670;50.094;8.496;2023-04-25T03:31:55;99683.75;;;10.76;63.28
50702;BME280;36670;50.094;8.496;2023-04-25T03:34:20;99687.84;;;10.64;63.67
50702;BME280;36670;50.094;8.496;2023-04-25T03:36:46;99687.53;;;10.55;64.22
50702;BME280;36670;50.094;8.496;2023-04-25T03:39:12;99680.66;;;10.63;63.49
50702;BME280;36670;50.094;8.496;2023-04-25T03:41:37;99689.56;;;10.75;63.55
50702;BME280;36670;50.094;8.496;2023-04-25T03:44:03;99681.94;;;10.45;63.59
50702;BME280;36670;50.094;8.496;2023-04-25T03:46:28;99673.91;;;10.38;64.23
50702;BME280;36670;50.094;8.496;2023-04-25T03:48:53;99673.44;;;10.14;63.28
50702;BME280;36670;50.094;8.496;2023-04-25T03:51:19;99667.47;;;9.89;63.84
50702;BME280;36670;50.094;8.496;2023-04-25T03:53:44;99672.34;;;9.77;64.23
50702;BME280;36670;50.094;8.496;2023-04-25T03:56:09;99669.34;;;9.84;63.35
50702;BME280;36670;50.094;8.496;2023-04-25T03:58:35;99675.09;;;9.77;63.18
50702;BME280;36670;50.094;8.496;2023-04-25T04:01:00;99680.22;;;9.63;64.25
50702;BME280;36670;50.094;8.496;2023-04-25T04:03:28;99691.28;;;9.68;63.61
50702;BME280;36670;50.094;8.496;2023-04-25T04:05:53;99688.34;;;9.80;63.56
50702;BME280;36670;50.094;8.496;2023-04-25T04:08:18;99690.25;;;9.74;64.06
50702;BME280;36670;50.094;8.496;2023-04-25T04:10:44;99693.25;;;9.73;62.87
50702;BME280;36670;50.094;8.496;2023-04-25T04:13:09;99704.31;;;9.78;63.58
50702;BME280;36670;50.094;8.496;2023-04-25T04:15:35;99705.56;;;9.93;63.10
50702;BME280;36670;50.094;8.496;2023-04-25T04:18:00;99710.81;;;9.62;63.26
50702;BME280;36670;50.094;8.496;2023-04-25T04:20:28;99708.47;;;9.81;62.93
50702;BME280;36670;50.094;8.496;2023-04-25T04:22:55;99721.56;;;9.63;63.10
50702;BME280;36670;50.094;8.496;2023-04-25T04:25:20;99720.75;;;9.95;62.65
50702;BME280;36670;50.094;8.496;2023-04-25T04:27:45;99716.94;;;10.01;63.28
50702;BME280;36670;50.094;8.496;2023-04-25T04:30:11;99726.78;;;10.24;62.05
50702;BME280;36670;50.094;8.496;2023-04-25T04:32:37;99729.41;;;10.41;62.20
50702;BME280;36670;50.094;8.496;2023-04-25T04:35:03;99730.91;;;10.59;62.08
50702;BME280;36670;50.094;8.496;2023-04-25T04:37:29;99727.09;;;10.33;62.10
50702;BME280;36670;50.094;8.496;2023-04-25T04:39:55;99732.19;;;10.47;62.19
50702;BME280;36670;50.094;8.496;2023-04-25T04:42:20;99735.38;;;10.71;61.48
50702;BME280;36670;50.094;8.496;2023-04-25T04:44:46;99735.56;;;10.54;61.44
50702;BME280;36670;50.094;8.496;2023-04-25T04:47:11;99734.47;;;10.55;61.91
50702;BME280;36670;50.094;8.496;2023-04-25T04:49:37;99739.72;;;10.24;62.46
50702;BME280;36670;50.094;8.496;2023-04-25T04:52:03;99743.75;;;10.44;61.36
50702;BME280;36670;50.094;8.496;2023-04-25T04:54:28;99754.09;;;10.26;61.64
50702;BME280;36670;50.094;8.496;2023-04-25T04:56:54;99756.00;;;10.25;60.64
50702;BME280;36670;50.094;8.496;2023-04-25T04:59:19;99759.50;;;10.16;60.37
50702;BME280;36670;50.094;8.496;2023-04-25T05:01:45;99756.53;;;9.90;61.29
50702;BME280;36670;50.094;8.496;2023-04-25T05:04:12;99763.00;;;10.01;61.87
50702;BME280;36670;50.094;8.496;2023-04-25T05:06:37;99770.00;;;10.46;60.88
50702;BME280;36670;50.094;8.496;2023-04-25T05:09:02;99771.22;;;10.66;60.69
50702;BME280;36670;50.094;8.496;2023-04-25T05:11:28;99766.25;;;10.63;61.47
50702;BME280;36670;50.094;8.496;2023-04-25T05:13:54;99766.41;;;10.88;60.53
50702;BME280;36670;50.094;8.496;2023-04-25T05:16:20;99764.03;;;11.13;60.54
50702;BME280;36670;50.094;8.496;2023-04-25T05:18:46;99778.38;;;11.09;60.34
50702;BME280;36670;50.094;8.496;2023-04-25T05:21:11;99770.25;;;10.87;58.75
50702;BME280;36670;50.094;8.496;2023-04-25T05:23:37;99775.00;;;10.54;59.40
50702;BME280;36670;50.094;8.496;2023-04-25T05:26:02;99775.97;;;10.75;59.16
50702;BME280;36670;50.094;8.496;2023-04-25T05:28:27;99779.94;;;10.90;59.18
50702;BME280;36670;50.094;8.496;2023-04-25T05:30:53;99786.38;;;11.06;58.71
50702;BME280;36670;50.094;8.496;2023-04-25T05:33:18;99784.81;;;11.31;58.36
50702;BME280;36670;50.094;8.496;2023-04-25T05:35:44;99801.34;;;11.15;58.35
50702;BME280;36670;50.094;8.496;2023-04-25T05:38:10;99801.41;;;10.83;59.37
50702;BME280;36670;50.094;8.496;2023-04-25T05:40:35;99793.72;;;11.43;59.23
50702;BME280;36670;50.094;8.496;2023-04-25T05:43:01;99794.16;;;12.13;57.58
50702;BME280;36670;50.094;8.496;2023-04-25T05:45:26;99785.34;;;12.17;56.87
50702;BME280;36670;50.094;8.496;2023-04-25T05:47:52;99788.56;;;11.72;55.73
50702;BME280;36670;50.094;8.496;2023-04-25T05:50:17;99792.94;;;11.63;56.94
50702;BME280;36670;50.094;8.496;2023-04-25T05:52:42;99794.47;;;11.28;57.27
50702;BME280;36670;50.094;8.496;2023-04-25T05:55:08;99800.41;;;11.57;57.04
50702;BME280;36670;50.094;8.496;2023-04-25T05:57:33;99794.56;;;11.49;56.70
50702;BME280;36670;50.094;8.496;2023-04-25T05:59:59;99798.16;;;10.91;57.50
50702;BME280;36670;50.094;8.496;2023-04-25T06:02:24;99793.56;;;11.07;56.62
50702;BME280;36670;50.094;8.496;2023-04-25T06:04:51;99796.41;;;11.22;56.86
50702;BME280;36670;50.094;8.496;2023-04-25T06:07:17;99787.63;;;11.46;56.67
50702;BME280;36670;50.094;8.496;2023-04-25T06:09:43;99790.69;;;11.55;56.72
50702;BME280;36670;50.094;8.496;2023-04-25T06:12:08;99799.38;;;11.89;55.05
50702;BME280;36670;50.094;8.496;2023-04-25T06:14:34;99792.25;;;12.29;56.05
50702;BME280;36670;50.094;8.496;2023-04-25T06:16:59;99796.38;;;12.68;54.69
50702;BME280;36670;50.094;8.496;2023-04-25T06:19:25;99805.94;;;13.22;54.15
50702;BME280;36670;50.094;8.496;2023-04-25T06:21:50;99802.56;;;13.41;53.86
50702;BME280;36670;50.094;8.496;2023-04-25T06:24:15;99798.00;;;12.90;52.92
50702;BME280;36670;50.094;8.496;2023-04-25T06:26:41;99806.91;;;12.76;52.69
50702;BME280;36670;50.094;8.496;2023-04-25T06:29:06;99804.38;;;12.80;53.52
50702;BME280;36670;50.094;8.496;2023-04-25T06:31:31;99805.75;;;12.77;53.19
50702;BME280;36670;50.094;8.496;2023-04-25T06:34:00;99794.13;;;12.91;52.65
50702;BME280;36670;50.094;8.496;2023-04-25T06:36:25;99812.03;;;13.29;52.51
50702;BME280;36670;50.094;8.496;2023-04-25T06:38:51;99808.06;;;13.51;52.58
50702;BME280;36670;50.094;8.496;2023-04-25T06:41:17;99804.19;;;13.47;50.94
50702;BME280;36670;50.094;8.496;2023-04-25T06:43:43;99806.06;;;13.67;51.81
50702;BME280;36670;50.094;8.496;2023-04-25T06:46:09;99808.06;;;13.51;50.28
50702;BME280;36670;50.094;8.496;2023-04-25T06:48:34;99814.09;;;12.72;50.70
50702;BME280;36670;50.094;8.496;2023-04-25T06:50:59;99817.16;;;12.35;52.34
50702;BME280;36670;50.094;8.496;2023-04-25T06:53:25;99824.34;;;12.00;52.98
50702;BME280;36670;50.094;8.496;2023-04-25T06:55:50;99818.34;;;11.55;53.54
50702;BME280;36670;50.094;8.496;2023-04-25T06:58:15;99829.16;;;11.61;53.31
50702;BME280;36670;50.094;8.496;2023-04-25T07:00:41;99829.66;;;11.43;53.82
50702;BME280;36670;50.094;8.496;2023-04-25T07:03:06;99828.72;;;11.22;53.75
50702;BME280;36670;50.094;8.496;2023-04-25T07:05:31;99835.03;;;11.12;54.73
50702;BME280;36670;50.094;8.496;2023-04-25T07:07:56;99830.91;;;11.20;54.95
50702;BME280;36670;50.094;8.496;2023-04-25T07:10:22;99827.22;;;11.62;54.82
50702;BME280;36670;50.094;8.496;2023-04-25T07:12:47;99829.78;;;11.79;54.55
50702;BME280;36670;50.094;8.496;2023-04-25T07:15:13;99842.88;;;12.04;54.00
50702;BME280;36670;50.094;8.496;2023-04-25T07:17:38;99848.72;;;12.23;53.19
50702;BME280;36670;50.094;8.496;2023-04-25T07:20:04;99852.03;;;12.31;53.57
50702;BME280;36670;50.094;8.496;2023-04-25T07:22:31;99843.16;;;12.28;53.62
50702;BME280;36670;50.094;8.496;2023-04-25T07:24:57;99844.81;;;12.76;54.95
50702;BME280;36670;50.094;8.496;2023-04-25T07:27:22;99835.97;;;12.94;53.63
50702;BME280;36670;50.094;8.496;2023-04-25T07:29:47;99839.72;;;13.40;52.36
50702;BME280;36670;50.094;8.496;2023-04-25T07:32:12;99834.28;;;12.88;50.63
50702;BME280;36670;50.094;8.496;2023-04-25T07:34:39;99832.84;;;13.17;51.15
50702;BME280;36670;50.094;8.496;2023-04-25T07:37:04;99848.91;;;13.35;51.97
50702;BME280;36670;50.094;8.496;2023-04-25T07:39:30;99842.66;;;13.69;50.87
50702;BME280;36670;50.094;8.496;2023-04-25T07:41:56;99856.25;;;13.71;50.88
50702;BME280;36670;50.094;8.496;2023-04-25T07:44:23;99863.34;;;13.17;49.98
50702;BME280;36670;50.094;8.496;2023-04-25T07:46:48;99856.22;;;12.64;50.26
50702;BME280;36670;50.094;8.496;2023-04-25T07:49:14;99865.34;;;12.49;50.74
50702;BME280;36670;50.094;8.496;2023-04-25T07:51:39;99857.84;;;12.34;50.26
50702;BME280;36670;50.094;8.496;2023-04-25T07:54:06;99859.50;;;12.45;50.34
50702;BME280;36670;50.094;8.496;2023-04-25T07:56:32;99858.91;;;12.07;50.18
50702;BME280;36670;50.094;8.496;2023-04-25T07:58:57;99865.53;;;11.96;51.80
50702;BME280;36670;50.094;8.496;2023-04-25T08:01:22;99873.34;;;12.30;50.56
50702;BME280;36670;50.094;8.496;2023-04-25T08:03:48;99869.19;;;12.48;50.87
50702;BME280;36670;50.094;8.496;2023-04-25T08:06:13;99871.13;;;12.42;50.94
50702;BME280;36670;50.094;8.496;2023-04-25T08:08:38;99874.56;;;11.76;50.13
50702;BME280;36670;50.094;8.496;2023-04-25T08:11:03;99877.06;;;11.83;51.49
50702;BME280;36670;50.094;8.496;2023-04-25T08:13:29;99871.06;;;11.96;51.37
50702;BME280;36670;50.094;8.496;2023-04-25T08:15:54;99880.00;;;12.29;50.70
50702;BME280;36670;50.094;8.496;2023-04-25T08:18:20;99874.75;;;12.69;51.14
50702;BME280;36670;50.094;8.496;2023-04-25T08:20:45;99877.25;;;12.80;50.16
50702;BME280;36670;50.094;8.496;2023-04-25T08:23:10;99894.66;;;12.24;49.42
50702;BME280;36670;50.094;8.496;2023-04-25T08:25:36;99881.63;;;12.15;50.42
50702;BME280;36670;50.094;8.496;2023-04-25T08:28:01;99889.44;;;12.59;49.84
50702;BME280;36670;50.094;8.496;2023-04-25T08:30:28;99897.66;;;12.18;50.65
50702;BME280;36670;50.094;8.496;2023-04-25T08:32:53;99899.41;;;12.55;50.05
50702;BME280;36670;50.094;8.496;2023-04-25T08:35:19;99903.56;;;12.93;49.34
50702;BME280;36670;50.094;8.496;2023-04-25T08:37:45;99891.84;;;13.48;50.05
50702;BME280;36670;50.094;8.496;2023-04-25T08:40:14;99900.91;;;13.69;47.97
50702;BME280;36670;50.094;8.496;2023-04-25T08:42:41;99899.84;;;13.60;47.00
50702;BME280;36670;50.094;8.496;2023-04-25T08:45:08;99911.53;;;13.52;48.00
50702;BME280;36670;50.094;8.496;2023-04-25T08:47:34;99905.63;;;13.69;47.86
50702;BME280;36670;50.094;8.496;2023-04-25T08:50:02;99916.72;;;13.74;46.29
50702;BME280;36670;50.094;8.496;2023-04-25T08:52:31;99916.16;;;13.66;46.76
50702;BME280;36670;50.094;8.496;2023-04-25T08:54:58;99926.81;;;13.18;47.46
50702;BME280;36670;50.094;8.496;2023-04-25T08:57:24;99919.84;;;13.21;47.93
50702;BME280;36670;50.094;8.496;2023-04-25T08:59:49;99922.66;;;13.05;49.48
50702;BME280;36670;50.094;8.496;2023-04-25T09:02:15;99927.66;;;13.08;47.73
50702;BME280;36670;50.094;8.496;2023-04-25T09:04:43;99929.31;;;12.94;47.97
50702;BME280;36670;50.094;8.496;2023-04-25T09:07:09;99938.72;;;13.24;48.33
50702;BME280;36670;50.094;8.496;2023-04-25T09:09:35;99934.56;;;13.42;47.41
50702;BME280;36670;50.094;8.496;2023-04-25T09:12:01;99941.94;;;13.72;47.02
50702;BME280;36670;50.094;8.496;2023-04-25T09:14:27;99946.91;;;13.86;46.36
50702;BME280;36670;50.094;8.496;2023-04-25T09:19:22;99947.50;;;13.72;45.33
50702;BME280;36670;50.094;8.496;2023-04-25T09:21:51;99951.47;;;13.30;45.42
50702;BME280;36670;50.094;8.496;2023-04-25T09:24:42;99946.75;;;12.63;45.23
50702;BME280;36670;50.094;8.496;2023-04-25T09:27:10;99950.38;;;12.74;46.87
50702;BME280;36670;50.094;8.496;2023-04-25T09:29:38;99956.19;;;12.93;45.94
50702;BME280;36670;50.094;8.496;2023-04-25T09:32:11;99943.72;;;13.17;45.86
50702;BME280;36670;50.094;8.496;2023-04-25T09:34:42;99953.41;;;13.29;44.76
50702;BME280;36670;50.094;8.496;2023-04-25T09:37:11;99957.84;;;13.36;46.12
50702;BME280;36670;50.094;8.496;2023-04-25T09:39:38;99958.03;;;13.80;46.19
50702;BME280;36670;50.094;8.496;2023-04-25T09:42:04;99965.06;;;14.23;43.44
50702;BME280;36670;50.094;8.496;2023-04-25T09:44:30;99973.50;;;14.02;44.13
50702;BME280;36670;50.094;8.496;2023-04-25T09:46:55;99989.19;;;13.46;44.69
50702;BME280;36670;50.094;8.496;2023-04-25T09:49:21;99970.88;;;13.30;44.16
50702;BME280;36670;50.094;8.496;2023-04-25T09:51:59;99965.03;;;13.52;45.13
50702;BME280;36670;50.094;8.496;2023-04-25T09:54:25;99972.53;;;14.32;45.17
50702;BME280;36670;50.094;8.496;2023-04-25T09:56:52;99973.81;;;14.95;43.91
50702;BME280;36670;50.094;8.496;2023-04-25T09:59:20;99972.25;;;14.79;42.91
50702;BME280;36670;50.094;8.496;2023-04-25T10:01:48;99985.44;;;14.52;42.34
50702;BME280;36670;50.094;8.496;2023-04-25T10:04:18;99981.69;;;14.28;42.31
50702;BME280;36670;50.094;8.496;2023-04-25T10:06:45;99981.47;;;14.14;41.38
50702;BME280;36670;50.094;8.496;2023-04-25T10:09:11;99987.03;;;14.19;41.83
50702;BME280;36670;50.094;8.496;2023-04-25T10:11:38;99982.78;;;13.61;42.83
50702;BME280;36670;50.094;8.496;2023-04-25T10:14:04;99983.06;;;13.60;44.15
50702;BME280;36670;50.094;8.496;2023-04-25T10:16:30;99983.88;;;13.65;43.88
50702;BME280;36670;50.094;8.496;2023-04-25T10:18:56;99991.19;;;14.16;44.30
50702;BME280;36670;50.094;8.496;2023-04-25T10:21:21;99990.38;;;14.71;43.47
50702;BME280;36670;50.094;8.496;2023-04-25T10:23:48;99989.31;;;14.57;42.90
50702;BME280;36670;50.094;8.496;2023-04-25T10:26:14;99995.06;;;14.76;42.65
50702;BME280;36670;50.094;8.496;2023-04-25T10:29:03;99997.41;;;14.53;42.74
50702;BME280;36670;50.094;8.496;2023-04-25T10:31:29;99994.44;;;14.34;43.24
50702;BME280;36670;50.094;8.496;2023-04-25T10:33:55;99989.13;;;14.38;41.86
50702;BME280;36670;50.094;8.496;2023-04-25T10:36:22;99996.03;;;13.85;42.79
50702;BME280;36670;50.094;8.496;2023-04-25T10:38:49;100006.06;;;13.55;43.30
50702;BME280;36670;50.094;8.496;2023-04-25T10:41:17;99996.94;;;13.03;43.36
50702;BME280;36670;50.094;8.496;2023-04-25T10:43:44;100011.63;;;13.14;43.84
50702;BME280;36670;50.094;8.496;2023-04-25T10:46:18;100013.84;;;12.96;44.14
50702;BME280;36670;50.094;8.496;2023-04-25T10:48:53;100012.75;;;13.18;43.23
50702;BME280;36670;50.094;8.496;2023-04-25T10:51:27;100018.56;;;13.32;43.22
50702;BME280;36670;50.094;8.496;2023-04-25T10:56:28;100009.97;;;13.34;42.38
50702;BME280;36670;50.094;8.496;2023-04-25T11:01:47;100014.69;;;13.64;43.52
50702;BME280;36670;50.094;8.496;2023-04-25T11:04:29;100014.88;;;13.88;42.32
50702;BME280;36670;50.094;8.496;2023-04-25T11:09:44;100017.97;;;13.76;42.89
50702;BME280;36670;50.094;8.496;2023-04-25T11:12:10;100008.31;;;13.48;43.55
50702;BME280;36670;50.094;8.496;2023-04-25T11:14:36;100017.72;;;13.62;43.61
50702;BME280;36670;50.094;8.496;2023-04-25T11:17:02;100026.06;;;13.42;44.10
50702;BME280;36670;50.094;8.496;2023-04-25T11:19:28;100027.16;;;13.30;44.19
50702;BME280;36670;50.094;8.496;2023-04-25T11:22:01;100035.44;;;13.15;45.00
50702;BME280;36670;50.094;8.496;2023-04-25T11:24:32;100027.97;;;13.10;44.40
50702;BME280;36670;50.094;8.496;2023-04-25T11:27:00;100031.31;;;13.23;44.54
50702;BME280;36670;50.094;8.496;2023-04-25T11:29:31;100034.63;;;13.25;45.25
50702;BME280;36670;50.094;8.496;2023-04-25T11:31:57;100031.03;;;13.65;44.44
50702;BME280;36670;50.094;8.496;2023-04-25T11:34:24;100036.88;;;13.28;44.36
50702;BME280;36670;50.094;8.496;2023-04-25T11:36:50;100047.13;;;13.43;42.97
50702;BME280;36670;50.094;8.496;2023-04-25T11:39:18;100042.09;;;13.35;43.12
50702;BME280;36670;50.094;8.496;2023-04-25T11:41:44;100037.44;;;13.40;43.17
50702;BME280;36670;50.094;8.496;2023-04-25T11:44:09;100049.06;;;13.32;42.96
50702;BME280;36670;50.094;8.496;2023-04-25T11:46:35;100047.94;;;13.33;43.54
50702;BME280;36670;50.094;8.496;2023-04-25T11:49:00;100050.44;;;13.35;42.88
50702;BME280;36670;50.094;8.496;2023-04-25T11:51:25;100044.34;;;13.74;43.56
50702;BME280;36670;50.094;8.496;2023-04-25T11:53:52;100047.13;;;13.74;42.42
50702;BME280;36670;50.094;8.496;2023-04-25T11:56:17;100057.59;;;14.03;41.58
50702;BME280;36670;50.094;8.496;2023-04-25T11:58:59;100058.25;;;13.53;42.67
50702;BME280;36670;50.094;8.496;2023-04-25T12:01:37;100052.88;;;14.03;43.10
50702;BME280;36670;50.094;8.496;2023-04-25T12:04:14;100050.53;;;14.36;42.29
50702;BME280;36670;50.094;8.496;2023-04-25T12:06:42;100060.16;;;14.59;41.64
50702;BME280;36670;50.094;8.496;2023-04-25T12:09:09;100058.50;;;15.08;41.99
50702;BME280;36670;50.094;8.496;2023-04-25T12:14:03;100059.06;;;14.50;40.40
50702;BME280;36670;50.094;8.496;2023-04-25T12:16:29;100065.06;;;14.78;40.67
50702;BME280;36670;50.094;8.496;2023-04-25T12:18:56;100046.75;;;14.01;39.85
50702;BME280;36670;50.094;8.496;2023-04-25T12:21:22;100072.66;;;13.55;41.11
50702;BME280;36670;50.094;8.496;2023-04-25T12:23:48;100061.00;;;13.74;41.72
50702;BME280;36670;50.094;8.496;2023-04-25T12:26:13;100059.03;;;13.74;41.88
50702;BME280;36670;50.094;8.496;2023-04-25T12:28:38;100059.28;;;13.88;41.44
50702;BME280;36670;50.094;8.496;2023-04-25T12:31:06;100060.44;;;13.61;41.24
50702;BME280;36670;50.094;8.496;2023-04-25T12:33:35;100060.41;;;13.05;42.17
50702;BME280;36670;50.094;8.496;2023-04-25T12:36:01;100082.72;;;12.52;42.53
50702;BME280;36670;50.094;8.496;2023-04-25T12:38:37;100079.19;;;12.08;44.47
50702;BME280;36670;50.094;8.496;2023-04-25T12:41:02;100074.31;;;12.31;44.18
50702;BME280;36670;50.094;8.496;2023-04-25T12:43:27;100082.06;;;12.29;43.88
50702;BME280;36670;50.094;8.496;2023-04-25T12:45:55;100084.31;;;12.37;44.26
50702;BME280;36670;50.094;8.496;2023-04-25T12:48:21;100091.16;;;12.24;44.51
50702;BME280;36670;50.094;8.496;2023-04-25T12:50:47;100091.84;;;12.47;44.84
50702;BME280;36670;50.094;8.496;2023-04-25T12:53:21;100094.44;;;12.79;44.02
50702;BME280;36670;50.094;8.496;2023-04-25T12:55:47;100089.22;;;12.93;43.59
50702;BME280;36670;50.094;8.496;2023-04-25T12:58:13;100094.81;;;13.29;43.58
50702;BME280;36670;50.094;8.496;2023-04-25T13:00:39;100095.91;;;13.23;41.90
50702;BME280;36670;50.094;8.496;2023-04-25T13:03:04;100088.97;;;13.21;43.52
50702;BME280;36670;50.094;8.496;2023-04-25T13:05:30;100101.22;;;13.56;41.38
50702;BME280;36670;50.094;8.496;2023-04-25T13:07:55;100094.28;;;13.58;43.17